Time;durP1;ratioP1;P1;durP2;ratioP2;P2;SDS_P1;SDS_P2;PMS_P1;PMS_P2;Temp;Humidity;BMP_temperature;BMP_pressure;BME280_temperature;BME280_humidity;BME280_pressure;Samples;Min_cycle;Max_cycle;Signal;HPM_P1;HPM_P2
2023/01/30 00:01:47;;;;;;;18.93;13.50;;;;;;;;;;5032253;28;20961;-89
2023/01/30 00:04:13;;;;;;;18.37;13.30;;;;;;;;;;5031233;28;20911;-89
2023/01/30 00:06:40;;;;;;;20.83;13.03;;;;;;;;;;5032691;28;20510;-89
2023/01/30 00:09:21;;;;;;;20.17;12.93;;;;;;;;;;5048028;28;20742;-89
2023/01/30 00:11:48;;;;;;;17.93;12.80;;;;;;;;;;5031204;28;20520;-89
2023/01/30 00:14:14;;;;;;;19.40;13.87;;;;;;;;;;5027349;28;20951;-89
2023/01/30 00:16:41;;;;;;;18.27;13.17;;;;;;;;;;5049218;28;20892;-90
2023/01/30 00:19:07;;;;;;;16.93;12.43;;;;;;;;;;5022578;28;20470;-89
2023/01/30 00:21:33;;;;;;;18.23;12.87;;;;;;;;;;5032406;28;20808;-89
2023/01/30 00:23:59;;;;;;;19.30;12.20;;;;;;;;;;5038818;28;20440;-89
2023/01/30 00:26:26;;;;;;;20.20;13.07;;;;;;;;;;5033279;28;20486;-90
2023/01/30 00:28:52;;;;;;;16.90;12.50;;;;;;;;;;5031991;28;20794;-89
2023/01/30 00:31:18;;;;;;;16.20;12.40;;;;;;;;;;5038332;28;20811;-89
2023/01/30 00:33:44;;;;;;;17.30;12.57;;;;;;;;;;5037631;28;20404;-89
2023/01/30 00:36:10;;;;;;;17.43;12.40;;;;;;;;;;5042616;28;20420;-89
2023/01/30 00:38:36;;;;;;;17.23;12.40;;;;;;;;;;5046425;28;20513;-89
2023/01/30 00:41:02;;;;;;;16.87;12.43;;;;;;;;;;5037463;28;20279;-89
2023/01/30 00:49:06;;;;;;;16.97;13.00;;;;;;;;;;5029682;28;20496;-89
2023/01/30 00:51:32;;;;;;;17.17;12.43;;;;;;;;;;5039994;28;20400;-89
2023/01/30 00:53:58;;;;;;;19.97;13.73;;;;;;;;;;5035286;28;20229;-89
2023/01/30 00:56:24;;;;;;;16.57;12.33;;;;;;;;;;5036382;28;20431;-89
2023/01/30 00:58:50;;;;;;;16.97;12.40;;;;;;;;;;5039052;28;20439;-89
2023/01/30 01:01:17;;;;;;;19.47;12.23;;;;;;;;;;5036944;28;20270;-89
2023/01/30 01:03:43;;;;;;;18.17;12.77;;;;;;;;;;5042108;28;20946;-89
2023/01/30 01:06:09;;;;;;;18.40;12.87;;;;;;;;;;5044742;28;20431;-90
2023/01/30 01:08:35;;;;;;;16.37;12.83;;;;;;;;;;5045894;28;20511;-89
2023/01/30 01:11:01;;;;;;;17.43;11.27;;;;;;;;;;5037809;28;20474;-87
2023/01/30 01:13:27;;;;;;;18.27;11.93;;;;;;;;;;5037204;28;21451;-87
2023/01/30 01:15:53;;;;;;;17.80;13.10;;;;;;;;;;5037918;28;20428;-87
2023/01/30 01:18:19;;;;;;;19.00;13.20;;;;;;;;;;5035111;28;20181;-87
2023/01/30 01:20:45;;;;;;;16.83;12.83;;;;;;;;;;5046334;28;20431;-87
2023/01/30 01:23:11;;;;;;;19.80;12.37;;;;;;;;;;5038100;28;20436;-87
2023/01/30 01:25:37;;;;;;;17.07;12.63;;;;;;;;;;5041361;28;20236;-87
2023/01/30 01:28:03;;;;;;;17.90;11.63;;;;;;;;;;5032385;28;20212;-86
2023/01/30 01:30:30;;;;;;;17.07;12.17;;;;;;;;;;5035023;28;20189;-87
2023/01/30 01:32:56;;;;;;;18.27;12.90;;;;;;;;;;5033622;28;20424;-87
2023/01/30 01:35:22;;;;;;;19.20;12.30;;;;;;;;;;5033430;28;20428;-88
2023/01/30 01:37:52;;;;;;;18.10;13.00;;;;;;;;;;5034545;28;20436;-87
2023/01/30 01:43:18;;;;;;;16.17;12.90;;;;;;;;;;5042670;28;20224;-87
2023/01/30 01:45:45;;;;;;;16.47;12.50;;;;;;;;;;5033849;28;20450;-87
2023/01/30 01:48:31;;;;;;;17.80;12.73;;;;;;;;;;5039909;28;20680;-87
2023/01/30 01:50:59;;;;;;;17.83;12.63;;;;;;;;;;5035661;28;20268;-88
2023/01/30 01:53:27;;;;;;;16.30;12.03;;;;;;;;;;5025470;28;20509;-88
2023/01/30 01:55:54;;;;;;;15.33;11.60;;;;;;;;;;5047032;28;20216;-87
2023/01/30 01:58:24;;;;;;;16.63;12.53;;;;;;;;;;5034561;28;20169;-87
2023/01/30 02:00:50;;;;;;;18.57;13.53;;;;;;;;;;5034474;28;20235;-87
2023/01/30 02:03:20;;;;;;;18.53;12.77;;;;;;;;;;5033567;28;20245;-87
2023/01/30 02:05:48;;;;;;;17.93;13.23;;;;;;;;;;5033697;28;20401;-87
2023/01/30 02:08:17;;;;;;;17.50;12.13;;;;;;;;;;5033510;28;20623;-86
2023/01/30 02:11:01;;;;;;;17.97;13.27;;;;;;;;;;5033502;28;20538;-87
2023/01/30 02:13:27;;;;;;;20.30;13.50;;;;;;;;;;5033818;28;20174;-87
2023/01/30 02:15:55;;;;;;;19.30;12.63;;;;;;;;;;5039474;28;20209;-87
2023/01/30 02:18:21;;;;;;;17.93;12.93;;;;;;;;;;5041490;28;20185;-87
2023/01/30 02:21:07;;;;;;;17.67;12.00;;;;;;;;;;5028668;28;20657;-87
2023/01/30 02:23:51;;;;;;;18.17;12.47;;;;;;;;;;5043615;28;20182;-86
2023/01/30 02:26:32;;;;;;;16.87;12.23;;;;;;;;;;5034015;28;20525;-87
2023/01/30 02:29:04;;;;;;;15.30;12.00;;;;;;;;;;5033340;28;20173;-88
2023/01/30 02:31:42;;;;;;;18.00;12.37;;;;;;;;;;5044486;28;20181;-87
2023/01/30 02:34:08;;;;;;;18.90;12.13;;;;;;;;;;5029542;28;20214;-87
2023/01/30 02:36:46;;;;;;;14.57;11.33;;;;;;;;;;5033660;28;20178;-87
2023/01/30 02:39:31;;;;;;;17.03;11.50;;;;;;;;;;5033840;28;20169;-87
2023/01/30 02:42:23;;;;;;;14.33;11.57;;;;;;;;;;5032748;28;20240;-87
2023/01/30 02:45:01;;;;;;;15.93;11.93;;;;;;;;;;5020343;28;20440;-87
2023/01/30 02:47:36;;;;;;;19.33;13.37;;;;;;;;;;5022879;28;20465;-87
2023/01/30 02:50:06;;;;;;;17.83;12.47;;;;;;;;;;5034628;28;20231;-87
2023/01/30 02:52:33;;;;;;;14.50;11.43;;;;;;;;;;5036325;28;20178;-86
2023/01/30 02:54:59;;;;;;;16.80;12.07;;;;;;;;;;5036347;28;20546;-87
2023/01/30 02:57:26;;;;;;;17.17;11.37;;;;;;;;;;5031575;28;20199;-87
2023/01/30 02:59:58;;;;;;;15.97;11.70;;;;;;;;;;5037928;28;20451;-87
2023/01/30 03:02:43;;;;;;;17.03;12.23;;;;;;;;;;5045805;28;20440;-87
2023/01/30 03:05:12;;;;;;;14.30;11.83;;;;;;;;;;5042057;28;21088;-87
2023/01/30 03:07:45;;;;;;;15.17;11.23;;;;;;;;;;5029808;28;20468;-86
2023/01/30 03:10:17;;;;;;;15.73;11.40;;;;;;;;;;5028651;28;20192;-86
2023/01/30 03:12:53;;;;;;;18.93;12.20;;;;;;;;;;5025610;28;20182;-87
2023/01/30 03:15:19;;;;;;;16.83;11.93;;;;;;;;;;5029596;28;20507;-87
2023/01/30 03:17:46;;;;;;;14.40;11.43;;;;;;;;;;5023821;28;20441;-86
2023/01/30 03:20:13;;;;;;;15.30;11.87;;;;;;;;;;5039042;28;20277;-87
2023/01/30 03:22:39;;;;;;;15.47;11.10;;;;;;;;;;5042779;28;20208;-87
2023/01/30 03:25:06;;;;;;;16.90;12.30;;;;;;;;;;5031485;28;20285;-87
2023/01/30 03:27:33;;;;;;;14.90;11.53;;;;;;;;;;5021580;28;20299;-87
2023/01/30 03:29:59;;;;;;;16.90;11.57;;;;;;;;;;5036412;28;20413;-87
2023/01/30 03:32:25;;;;;;;14.67;11.63;;;;;;;;;;5037184;28;20186;-87
2023/01/30 03:34:51;;;;;;;16.63;11.83;;;;;;;;;;5017511;28;20231;-88
2023/01/30 03:37:17;;;;;;;16.40;11.67;;;;;;;;;;5032872;28;20269;-87
2023/01/30 03:39:43;;;;;;;17.60;11.80;;;;;;;;;;5031704;28;20432;-88
2023/01/30 03:42:09;;;;;;;16.40;12.57;;;;;;;;;;5031961;28;20200;-87
2023/01/30 03:44:35;;;;;;;15.03;10.93;;;;;;;;;;5032212;28;20181;-87
2023/01/30 03:47:01;;;;;;;16.33;11.70;;;;;;;;;;5033255;28;20539;-86
2023/01/30 03:49:27;;;;;;;13.60;11.30;;;;;;;;;;5018831;28;21970;-88
2023/01/30 03:51:53;;;;;;;15.33;11.03;;;;;;;;;;5032274;28;20224;-87
2023/01/30 03:54:20;;;;;;;14.37;11.20;;;;;;;;;;5031522;28;20221;-87
2023/01/30 03:56:46;;;;;;;14.57;11.53;;;;;;;;;;5030870;28;20246;-87
2023/01/30 03:59:12;;;;;;;17.73;12.00;;;;;;;;;;5031640;28;20185;-87
2023/01/30 04:01:38;;;;;;;13.33;11.23;;;;;;;;;;5033303;28;20429;-87
2023/01/30 04:04:04;;;;;;;14.77;11.20;;;;;;;;;;5031714;28;20527;-87
2023/01/30 04:06:30;;;;;;;15.00;11.27;;;;;;;;;;5036419;28;20257;-87
2023/01/30 04:08:56;;;;;;;16.77;12.17;;;;;;;;;;5039300;28;20497;-87
2023/01/30 04:11:22;;;;;;;14.03;11.33;;;;;;;;;;5032958;28;20190;-87
2023/01/30 04:13:48;;;;;;;17.00;12.07;;;;;;;;;;5037920;28;20262;-87
2023/01/30 04:16:16;;;;;;;14.57;11.77;;;;;;;;;;5032008;28;20185;-87
2023/01/30 04:18:42;;;;;;;14.83;11.77;;;;;;;;;;5031149;28;20518;-87
2023/01/30 04:21:08;;;;;;;16.80;12.73;;;;;;;;;;5033216;28;20181;-87
2023/01/30 04:23:34;;;;;;;14.97;12.80;;;;;;;;;;5031509;28;20648;-87
2023/01/30 04:26:00;;;;;;;15.57;12.20;;;;;;;;;;5033939;28;20293;-87
2023/01/30 04:28:26;;;;;;;17.50;11.53;;;;;;;;;;5033494;28;20468;-88
2023/01/30 04:30:52;;;;;;;14.60;11.33;;;;;;;;;;5031463;28;20208;-87
2023/01/30 04:33:18;;;;;;;14.43;12.57;;;;;;;;;;5030894;28;20689;-88
2023/01/30 04:36:00;;;;;;;14.77;11.77;;;;;;;;;;5030493;28;20401;-88
2023/01/30 04:38:27;;;;;;;14.30;11.37;;;;;;;;;;5030229;28;20728;-88
2023/01/30 04:40:54;;;;;;;15.00;10.97;;;;;;;;;;5032153;28;20204;-87
2023/01/30 04:43:21;;;;;;;17.10;11.47;;;;;;;;;;5029151;28;20232;-88
2023/01/30 04:45:47;;;;;;;15.70;12.83;;;;;;;;;;5030928;28;20184;-87
2023/01/30 04:48:14;;;;;;;16.53;12.03;;;;;;;;;;5041042;28;20246;-88
2023/01/30 04:50:41;;;;;;;18.20;11.40;;;;;;;;;;5034547;28;20178;-88
2023/01/30 04:53:07;;;;;;;15.33;12.30;;;;;;;;;;5024840;28;20209;-87
2023/01/30 04:55:33;;;;;;;15.40;11.87;;;;;;;;;;5038698;28;20786;-88
2023/01/30 04:57:59;;;;;;;14.33;11.23;;;;;;;;;;5035668;28;20182;-87
2023/01/30 05:00:25;;;;;;;15.37;11.50;;;;;;;;;;5041622;28;20170;-86
2023/01/30 05:02:52;;;;;;;15.97;11.50;;;;;;;;;;5022707;28;20276;-86
2023/01/30 05:05:18;;;;;;;14.53;11.30;;;;;;;;;;5032623;28;20797;-87
2023/01/30 05:07:44;;;;;;;15.03;10.73;;;;;;;;;;5025380;28;20273;-87
2023/01/30 05:10:10;;;;;;;14.67;11.10;;;;;;;;;;5029597;28;20225;-87
2023/01/30 05:12:37;;;;;;;15.93;11.07;;;;;;;;;;5037371;28;20178;-87
2023/01/30 05:15:03;;;;;;;15.43;10.83;;;;;;;;;;5034693;28;20178;-87
2023/01/30 05:17:29;;;;;;;15.57;11.67;;;;;;;;;;5046814;28;20253;-87
2023/01/30 05:19:55;;;;;;;15.23;11.13;;;;;;;;;;5039817;28;20185;-87
2023/01/30 05:22:21;;;;;;;14.23;10.80;;;;;;;;;;5029296;28;20449;-87
2023/01/30 05:24:47;;;;;;;15.23;11.50;;;;;;;;;;5045824;28;20766;-87
2023/01/30 05:27:13;;;;;;;13.87;10.87;;;;;;;;;;5037106;28;20294;-87
2023/01/30 05:29:39;;;;;;;13.00;10.63;;;;;;;;;;5029595;28;20198;-87
2023/01/30 05:32:05;;;;;;;14.10;11.27;;;;;;;;;;5033893;28;20186;-87
2023/01/30 05:34:31;;;;;;;13.90;11.33;;;;;;;;;;5034697;28;20205;-87
2023/01/30 05:36:57;;;;;;;14.13;9.77;;;;;;;;;;5033813;28;20629;-87
2023/01/30 05:39:23;;;;;;;14.77;11.60;;;;;;;;;;5027166;28;20559;-87
2023/01/30 05:41:49;;;;;;;14.73;10.90;;;;;;;;;;5039552;28;20209;-86
2023/01/30 05:44:15;;;;;;;14.53;10.57;;;;;;;;;;5036498;28;20186;-87
2023/01/30 05:46:41;;;;;;;13.83;11.17;;;;;;;;;;5035545;28;20201;-87
2023/01/30 05:49:07;;;;;;;14.00;11.23;;;;;;;;;;5035651;28;20197;-87
2023/01/30 05:51:33;;;;;;;16.47;11.53;;;;;;;;;;5030922;28;20174;-88
2023/01/30 05:53:59;;;;;;;13.67;11.43;;;;;;;;;;5035049;28;20303;-87
2023/01/30 05:56:25;;;;;;;16.53;10.57;;;;;;;;;;5035395;28;20210;-87
2023/01/30 05:58:56;;;;;;;14.50;11.27;;;;;;;;;;5036232;28;20236;-88
2023/01/30 06:01:22;;;;;;;14.80;10.50;;;;;;;;;;5036064;28;20193;-88
2023/01/30 06:03:49;;;;;;;17.53;11.33;;;;;;;;;;5035471;28;20260;-87
2023/01/30 06:06:15;;;;;;;14.23;11.03;;;;;;;;;;5030788;28;20174;-87
2023/01/30 06:08:41;;;;;;;14.30;10.33;;;;;;;;;;5040947;28;20197;-88
2023/01/30 06:11:09;;;;;;;12.60;9.97;;;;;;;;;;5029025;28;20190;-88
2023/01/30 06:13:36;;;;;;;12.07;10.13;;;;;;;;;;5030182;28;20178;-88
2023/01/30 06:16:02;;;;;;;12.90;10.47;;;;;;;;;;5042651;28;20281;-88
2023/01/30 06:18:28;;;;;;;14.63;10.07;;;;;;;;;;5039240;28;20479;-88
2023/01/30 06:20:54;;;;;;;11.97;10.63;;;;;;;;;;5032555;28;20248;-88
2023/01/30 06:23:22;;;;;;;12.00;9.53;;;;;;;;;;5027140;28;20209;-88
2023/01/30 06:25:48;;;;;;;12.17;9.93;;;;;;;;;;5041755;28;20200;-88
2023/01/30 06:28:15;;;;;;;11.77;10.50;;;;;;;;;;5032067;28;20252;-85
2023/01/30 06:30:41;;;;;;;14.17;10.33;;;;;;;;;;5036876;28;20589;-88
2023/01/30 06:33:08;;;;;;;11.23;9.70;;;;;;;;;;5032253;28;20178;-87
2023/01/30 06:35:34;;;;;;;12.70;10.27;;;;;;;;;;5034337;28;20248;-87
2023/01/30 06:38:00;;;;;;;11.07;9.67;;;;;;;;;;5051167;28;20197;-88
2023/01/30 06:40:26;;;;;;;9.90;8.87;;;;;;;;;;5035382;28;20236;-88
2023/01/30 06:42:52;;;;;;;9.40;8.50;;;;;;;;;;5029926;28;20240;-87
2023/01/30 06:45:18;;;;;;;12.17;10.07;;;;;;;;;;5035263;28;20273;-87
2023/01/30 06:47:45;;;;;;;11.93;10.47;;;;;;;;;;5034941;28;20702;-87
2023/01/30 06:50:12;;;;;;;11.60;9.47;;;;;;;;;;5034498;28;20204;-87
2023/01/30 06:52:42;;;;;;;11.53;9.40;;;;;;;;;;5021530;28;20250;-88
2023/01/30 06:55:09;;;;;;;11.63;9.60;;;;;;;;;;5032064;28;20678;-87
2023/01/30 06:57:35;;;;;;;12.90;10.13;;;;;;;;;;5029544;28;20190;-87
2023/01/30 07:00:01;;;;;;;10.53;8.83;;;;;;;;;;5035388;28;20182;-88
2023/01/30 07:02:29;;;;;;;10.77;9.67;;;;;;;;;;5035555;28;20188;-88
2023/01/30 07:04:55;;;;;;;10.87;9.10;;;;;;;;;;5028828;28;20220;-87
2023/01/30 07:07:21;;;;;;;10.00;8.97;;;;;;;;;;5024377;28;20566;-87
2023/01/30 07:09:47;;;;;;;13.47;10.40;;;;;;;;;;5029136;28;20182;-88
2023/01/30 07:12:13;;;;;;;12.67;9.97;;;;;;;;;;5031552;28;20205;-87
2023/01/30 07:14:39;;;;;;;11.10;9.80;;;;;;;;;;5032167;28;20640;-88
2023/01/30 07:17:05;;;;;;;11.90;10.13;;;;;;;;;;5034776;28;20598;-87
2023/01/30 07:19:31;;;;;;;12.00;10.40;;;;;;;;;;5035509;28;20186;-88
2023/01/30 07:21:57;;;;;;;12.93;10.50;;;;;;;;;;5024085;28;20273;-88
2023/01/30 07:24:23;;;;;;;13.57;10.77;;;;;;;;;;5028510;28;20263;-89
2023/01/30 07:26:49;;;;;;;11.37;9.07;;;;;;;;;;5033800;28;20209;-88
2023/01/30 07:29:15;;;;;;;11.67;10.40;;;;;;;;;;5032268;28;20181;-86
2023/01/30 07:31:41;;;;;;;12.10;9.47;;;;;;;;;;5034346;28;20226;-86
2023/01/30 07:34:07;;;;;;;14.10;10.73;;;;;;;;;;5032383;28;20173;-85
2023/01/30 07:36:34;;;;;;;11.30;10.00;;;;;;;;;;5019769;28;20205;-86
2023/01/30 07:39:00;;;;;;;10.07;8.93;;;;;;;;;;5049513;28;20174;-86
2023/01/30 07:41:26;;;;;;;13.70;10.40;;;;;;;;;;5027764;28;20488;-86
2023/01/30 07:43:52;;;;;;;12.73;10.23;;;;;;;;;;5026897;28;20197;-85
2023/01/30 07:46:19;;;;;;;11.57;9.10;;;;;;;;;;5019271;28;20234;-85
2023/01/30 07:48:45;;;;;;;13.60;9.13;;;;;;;;;;5033699;28;20194;-86
2023/01/30 07:51:11;;;;;;;13.80;9.67;;;;;;;;;;5032353;28;20613;-85
2023/01/30 07:53:37;;;;;;;11.47;9.37;;;;;;;;;;5040821;28;20228;-87
2023/01/30 07:56:07;;;;;;;13.07;10.07;;;;;;;;;;5032587;28;20238;-86
2023/01/30 07:58:33;;;;;;;12.03;9.03;;;;;;;;;;5045629;28;20197;-85
2023/01/30 08:00:59;;;;;;;10.00;8.33;;;;;;;;;;5033117;28;20293;-85
2023/01/30 08:03:25;;;;;;;11.80;8.60;;;;;;;;;;5030324;28;20198;-85
2023/01/30 08:05:52;;;;;;;12.23;8.53;;;;;;;;;;5038066;28;20192;-86
2023/01/30 08:08:19;;;;;;;10.57;8.03;;;;;;;;;;5032621;28;20207;-83
2023/01/30 08:10:48;;;;;;;8.97;7.83;;;;;;;;;;5029209;28;20272;-85
2023/01/30 08:13:14;;;;;;;12.30;8.83;;;;;;;;;;5022935;28;20174;-87
2023/01/30 08:15:40;;;;;;;11.30;8.20;;;;;;;;;;5032475;28;20277;-84
2023/01/30 08:18:06;;;;;;;10.03;8.07;;;;;;;;;;5037582;28;20233;-83
2023/01/30 08:20:32;;;;;;;8.77;7.87;;;;;;;;;;5025721;28;20182;-84
2023/01/30 08:23:00;;;;;;;11.73;7.80;;;;;;;;;;5035335;28;20197;-84
2023/01/30 08:25:27;;;;;;;11.80;7.67;;;;;;;;;;5033809;28;20158;-83
2023/01/30 08:27:53;;;;;;;8.83;6.70;;;;;;;;;;5032881;28;20522;-85
2023/01/30 08:30:34;;;;;;;8.97;7.00;;;;;;;;;;5031285;28;20522;-84
2023/01/30 08:33:01;;;;;;;8.37;6.90;;;;;;;;;;5034307;28;20188;-85
2023/01/30 08:35:27;;;;;;;8.67;6.00;;;;;;;;;;5026214;28;20178;-84
2023/01/30 08:37:53;;;;;;;8.67;6.40;;;;;;;;;;5036981;28;20182;-84
2023/01/30 08:40:19;;;;;;;8.47;5.60;;;;;;;;;;5031293;28;20594;-84
2023/01/30 08:42:45;;;;;;;11.50;6.33;;;;;;;;;;5031450;28;20909;-85
2023/01/30 08:45:11;;;;;;;13.77;6.60;;;;;;;;;;5028972;28;20216;-85
2023/01/30 08:47:37;;;;;;;11.17;6.40;;;;;;;;;;5027643;28;20209;-83
2023/01/30 08:50:04;;;;;;;7.07;5.40;;;;;;;;;;5025010;28;20194;-83
2023/01/30 08:52:31;;;;;;;11.17;5.77;;;;;;;;;;5044486;28;20186;-83
2023/01/30 08:54:57;;;;;;;7.87;5.90;;;;;;;;;;5013743;28;20244;-84
2023/01/30 08:57:23;;;;;;;8.40;5.43;;;;;;;;;;5037854;28;20275;-84
2023/01/30 08:59:52;;;;;;;9.47;5.93;;;;;;;;;;5042645;28;20193;-85
2023/01/30 09:02:18;;;;;;;9.17;5.50;;;;;;;;;;5043999;28;20162;-83
2023/01/30 09:04:44;;;;;;;7.97;5.27;;;;;;;;;;5040317;28;20181;-83
2023/01/30 09:07:10;;;;;;;6.83;5.17;;;;;;;;;;5037075;28;20194;-84
2023/01/30 09:09:36;;;;;;;10.73;6.43;;;;;;;;;;5026893;28;20653;-84
2023/01/30 09:12:03;;;;;;;7.73;5.10;;;;;;;;;;5037546;28;20181;-83
2023/01/30 09:14:29;;;;;;;10.07;4.70;;;;;;;;;;5037051;28;20196;-83
2023/01/30 09:16:55;;;;;;;9.53;5.27;;;;;;;;;;5039554;28;20169;-83
2023/01/30 09:19:25;;;;;;;10.77;4.67;;;;;;;;;;5036004;28;20182;-84
2023/01/30 09:21:52;;;;;;;7.93;4.50;;;;;;;;;;5036684;28;20247;-85
2023/01/30 09:24:18;;;;;;;9.33;4.90;;;;;;;;;;5024299;28;20182;-83
2023/01/30 09:26:44;;;;;;;10.60;4.00;;;;;;;;;;5016434;28;20224;-84
2023/01/30 09:29:11;;;;;;;11.00;4.10;;;;;;;;;;5035913;28;20198;-86
2023/01/30 09:31:37;;;;;;;6.77;3.33;;;;;;;;;;5036167;28;20598;-83
2023/01/30 09:34:03;;;;;;;8.17;3.90;;;;;;;;;;5035893;28;20182;-83
2023/01/30 09:36:30;;;;;;;9.70;3.47;;;;;;;;;;5038326;28;20216;-85
2023/01/30 09:38:56;;;;;;;8.00;4.10;;;;;;;;;;5035768;28;20201;-83
2023/01/30 09:41:22;;;;;;;10.93;3.73;;;;;;;;;;5034740;28;20200;-84
2023/01/30 09:43:48;;;;;;;7.73;3.20;;;;;;;;;;5032168;28;20178;-83
2023/01/30 09:46:17;;;;;;;5.50;3.00;;;;;;;;;;5032563;28;20288;-83
2023/01/30 09:48:49;;;;;;;8.53;3.67;;;;;;;;;;5033981;28;20236;-84
2023/01/30 09:51:21;;;;;;;10.70;3.43;;;;;;;;;;5036932;28;20208;-83
2023/01/30 09:53:47;;;;;;;8.07;3.00;;;;;;;;;;5034727;28;20226;-83
2023/01/30 09:56:13;;;;;;;6.90;3.00;;;;;;;;;;5033977;28;20236;-84
2023/01/30 09:58:45;;;;;;;7.50;2.87;;;;;;;;;;5039896;28;20213;-83
2023/01/30 10:01:16;;;;;;;8.07;3.07;;;;;;;;;;5049112;28;20190;-85
2023/01/30 10:04:01;;;;;;;7.33;3.10;;;;;;;;;;5035039;28;20658;-83
2023/01/30 10:06:27;;;;;;;13.60;3.20;;;;;;;;;;5035790;28;20182;-84
2023/01/30 10:09:12;;;;;;;8.50;3.03;;;;;;;;;;5033094;28;20214;-84
2023/01/30 10:11:46;;;;;;;5.47;2.47;;;;;;;;;;5033815;28;20173;-83
2023/01/30 10:14:15;;;;;;;10.50;2.87;;;;;;;;;;5033003;28;20181;-84
2023/01/30 10:16:52;;;;;;;12.73;5.07;;;;;;;;;;5035285;28;20174;-83
2023/01/30 10:19:31;;;;;;;8.50;2.17;;;;;;;;;;5034007;28;20169;-84
2023/01/30 10:22:01;;;;;;;6.70;2.27;;;;;;;;;;5035056;28;20185;-84
2023/01/30 10:24:30;;;;;;;5.57;3.10;;;;;;;;;;5029495;28;20189;-83
2023/01/30 10:26:57;;;;;;;10.63;2.43;;;;;;;;;;5034765;28;20222;-83
2023/01/30 10:29:23;;;;;;;8.33;3.03;;;;;;;;;;5033519;28;20620;-83
2023/01/30 10:31:54;;;;;;;7.37;2.90;;;;;;;;;;5035057;28;20200;-83
2023/01/30 10:34:27;;;;;;;5.40;2.47;;;;;;;;;;5047395;28;20189;-83
2023/01/30 10:37:03;;;;;;;7.30;2.97;;;;;;;;;;5015949;28;20623;-82
2023/01/30 10:39:48;;;;;;;6.23;2.97;;;;;;;;;;5023953;28;20193;-83
2023/01/30 10:42:18;;;;;;;13.47;2.70;;;;;;;;;;5034636;28;20196;-85
2023/01/30 10:44:46;;;;;;;5.57;2.60;;;;;;;;;;5034993;28;20192;-83
2023/01/30 10:47:12;;;;;;;13.40;2.80;;;;;;;;;;5051012;28;20208;-83
2023/01/30 10:49:44;;;;;;;9.57;2.90;;;;;;;;;;5051632;28;20268;-84
2023/01/30 10:52:10;;;;;;;10.33;3.27;;;;;;;;;;5037831;28;20186;-84
2023/01/30 10:54:36;;;;;;;8.07;3.03;;;;;;;;;;5049743;28;20315;-85
2023/01/30 10:57:03;;;;;;;7.13;3.53;;;;;;;;;;5033805;28;20283;-84
2023/01/30 10:59:40;;;;;;;12.70;3.37;;;;;;;;;;5033614;28;20194;-82
2023/01/30 11:02:06;;;;;;;7.63;2.40;;;;;;;;;;5035316;28;20188;-86
2023/01/30 11:04:43;;;;;;;8.93;3.43;;;;;;;;;;5033022;28;20174;-83
2023/01/30 11:07:11;;;;;;;4.63;2.47;;;;;;;;;;5034073;28;20204;-84
2023/01/30 11:09:47;;;;;;;8.90;3.07;;;;;;;;;;5032242;28;20196;-84
2023/01/30 11:12:13;;;;;;;9.00;2.70;;;;;;;;;;5032335;28;20189;-84
2023/01/30 11:14:52;;;;;;;9.70;2.90;;;;;;;;;;5035427;28;20304;-83
2023/01/30 11:17:19;;;;;;;8.47;2.60;;;;;;;;;;5033967;28;20186;-84
2023/01/30 11:19:53;;;;;;;8.17;3.00;;;;;;;;;;5034638;28;20197;-83
2023/01/30 11:22:19;;;;;;;13.10;3.13;;;;;;;;;;5034409;28;20710;-84
2023/01/30 11:24:46;;;;;;;11.73;2.50;;;;;;;;;;5031634;28;20181;-84
2023/01/30 11:27:17;;;;;;;10.40;2.70;;;;;;;;;;5034247;28;20197;-83
2023/01/30 11:29:43;;;;;;;8.37;2.83;;;;;;;;;;5033671;28;20189;-84
2023/01/30 11:32:15;;;;;;;7.17;3.37;;;;;;;;;;5034009;28;20170;-83
2023/01/30 11:34:44;;;;;;;10.30;2.50;;;;;;;;;;5033593;28;20166;-83
2023/01/30 11:37:30;;;;;;;10.50;2.60;;;;;;;;;;5034043;28;20174;-84
2023/01/30 11:39:56;;;;;;;8.63;2.60;;;;;;;;;;5031504;28;20605;-83
2023/01/30 11:42:24;;;;;;;10.07;3.07;;;;;;;;;;5032142;28;20186;-84
2023/01/30 11:45:00;;;;;;;8.37;3.00;;;;;;;;;;5032423;28;20182;-83
2023/01/30 11:47:28;;;;;;;7.60;2.00;;;;;;;;;;5045195;28;20213;-84
2023/01/30 11:50:01;;;;;;;6.40;2.60;;;;;;;;;;5034186;28;20648;-84
2023/01/30 11:52:33;;;;;;;10.57;2.57;;;;;;;;;;5033422;28;20170;-83
2023/01/30 11:55:04;;;;;;;6.50;2.30;;;;;;;;;;5034375;28;20229;-85
2023/01/30 11:57:38;;;;;;;9.47;2.50;;;;;;;;;;5033476;28;20689;-83
2023/01/30 12:00:04;;;;;;;4.93;2.30;;;;;;;;;;5032739;28;20621;-83
2023/01/30 12:02:35;;;;;;;6.73;2.07;;;;;;;;;;5023965;28;20636;-83
2023/01/30 12:05:07;;;;;;;6.60;2.60;;;;;;;;;;5048840;28;20239;-84
2023/01/30 12:07:34;;;;;;;7.37;2.43;;;;;;;;;;5033317;28;20221;-83
2023/01/30 12:10:00;;;;;;;6.20;2.70;;;;;;;;;;5032818;28;20174;-83
2023/01/30 12:12:31;;;;;;;6.73;2.43;;;;;;;;;;5036582;28;20194;-83
2023/01/30 12:15:02;;;;;;;7.33;2.50;;;;;;;;;;5034134;28;20513;-83
2023/01/30 12:17:45;;;;;;;9.10;2.90;;;;;;;;;;5032960;28;20166;-83
2023/01/30 12:20:30;;;;;;;5.30;1.90;;;;;;;;;;5023644;28;20192;-83
2023/01/30 12:23:04;;;;;;;5.53;2.50;;;;;;;;;;5020927;28;20239;-84
2023/01/30 12:25:53;;;;;;;6.60;2.80;;;;;;;;;;5029178;28;20178;-84
2023/01/30 12:28:31;;;;;;;10.43;2.87;;;;;;;;;;4996046;28;20256;-83
2023/01/30 12:31:01;;;;;;;10.43;2.97;;;;;;;;;;5030505;28;20189;-84
2023/01/30 12:33:29;;;;;;;6.40;2.50;;;;;;;;;;5033408;28;20231;-83
2023/01/30 12:36:02;;;;;;;10.13;2.60;;;;;;;;;;5031271;28;20196;-82
2023/01/30 12:38:47;;;;;;;5.53;2.70;;;;;;;;;;5030915;28;20182;-83
2023/01/30 12:41:26;;;;;;;5.93;2.60;;;;;;;;;;5039898;28;20182;-83
2023/01/30 12:44:06;;;;;;;6.23;2.93;;;;;;;;;;5025497;28;20900;-84
2023/01/30 12:46:36;;;;;;;7.73;2.37;;;;;;;;;;5041117;28;20165;-83
2023/01/30 12:49:14;;;;;;;8.83;2.83;;;;;;;;;;5025063;28;20228;-84
2023/01/30 12:51:49;;;;;;;9.33;2.70;;;;;;;;;;5033039;28;20227;-83
2023/01/30 12:54:28;;;;;;;10.60;2.40;;;;;;;;;;5050873;28;20217;-84
2023/01/30 12:56:59;;;;;;;8.13;1.73;;;;;;;;;;5038950;28;20205;-84
2023/01/30 12:59:25;;;;;;;7.83;2.50;;;;;;;;;;5034503;28;20185;-82
2023/01/30 13:02:03;;;;;;;7.60;2.87;;;;;;;;;;5032860;28;20209;-83
2023/01/30 13:04:36;;;;;;;5.93;2.67;;;;;;;;;;5032114;28;20193;-84
2023/01/30 13:07:02;;;;;;;8.53;2.53;;;;;;;;;;5047249;28;20206;-83
2023/01/30 13:09:40;;;;;;;8.17;2.67;;;;;;;;;;5027809;28;20178;-83
2023/01/30 13:12:25;;;;;;;11.40;3.53;;;;;;;;;;5024102;28;20680;-85
2023/01/30 13:14:58;;;;;;;7.77;2.70;;;;;;;;;;5029757;28;20390;-83
2023/01/30 13:17:40;;;;;;;8.33;2.77;;;;;;;;;;5044920;28;20247;-84
2023/01/30 13:20:14;;;;;;;11.30;2.70;;;;;;;;;;5039247;28;20250;-84
2023/01/30 13:22:59;;;;;;;7.37;2.50;;;;;;;;;;5042238;28;20221;-83
2023/01/30 13:25:31;;;;;;;10.77;2.90;;;;;;;;;;5027936;28;20300;-83
2023/01/30 13:28:01;;;;;;;9.77;2.83;;;;;;;;;;5041663;28;20288;-83
2023/01/30 13:30:27;;;;;;;13.13;3.73;;;;;;;;;;5027595;28;20174;-84
2023/01/30 13:32:57;;;;;;;12.03;2.73;;;;;;;;;;5027123;28;20176;-84
2023/01/30 13:35:30;;;;;;;5.10;3.07;;;;;;;;;;5023370;28;20502;-83
2023/01/30 13:37:57;;;;;;;9.73;2.80;;;;;;;;;;5042534;28;20197;-83
2023/01/30 13:40:37;;;;;;;12.73;3.13;;;;;;;;;;5025293;28;20182;-82
2023/01/30 13:43:14;;;;;;;6.90;2.27;;;;;;;;;;5033968;28;20182;-84
2023/01/30 13:45:42;;;;;;;8.13;2.73;;;;;;;;;;5028330;28;20239;-84
2023/01/30 13:48:25;;;;;;;7.67;3.40;;;;;;;;;;5039100;28;20711;-84
2023/01/30 13:51:09;;;;;;;12.37;3.20;;;;;;;;;;5022266;28;20285;-82
2023/01/30 13:53:48;;;;;;;10.37;2.87;;;;;;;;;;5043441;28;20232;-83
2023/01/30 13:56:33;;;;;;;7.97;3.27;;;;;;;;;;5030239;28;20228;-84
2023/01/30 13:59:08;;;;;;;9.07;2.80;;;;;;;;;;5043887;28;20257;-83
2023/01/30 14:01:53;;;;;;;12.50;2.77;;;;;;;;;;5043909;28;20268;-82
2023/01/30 14:04:44;;;;;;;7.27;2.77;;;;;;;;;;5030696;28;20217;-84
2023/01/30 14:07:36;;;;;;;11.73;3.27;;;;;;;;;;5045251;28;20285;-82
2023/01/30 14:10:08;;;;;;;6.77;2.63;;;;;;;;;;5028300;28;20206;-84
2023/01/30 14:12:36;;;;;;;17.90;3.17;;;;;;;;;;5040806;28;20179;-82
2023/01/30 14:15:23;;;;;;;9.90;2.43;;;;;;;;;;5047666;28;20198;-84
2023/01/30 14:18:01;;;;;;;10.80;2.93;;;;;;;;;;5027555;28;20707;-83
2023/01/30 14:20:32;;;;;;;12.00;3.07;;;;;;;;;;5044881;28;20220;-83
2023/01/30 14:22:59;;;;;;;10.97;3.00;;;;;;;;;;5031157;28;20847;-82
2023/01/30 14:25:25;;;;;;;12.50;3.60;;;;;;;;;;5030812;28;20182;-84
2023/01/30 14:28:01;;;;;;;7.80;2.40;;;;;;;;;;5036370;28;20205;-84
2023/01/30 14:30:30;;;;;;;12.57;3.67;;;;;;;;;;5030451;28;20178;-84
2023/01/30 14:33:00;;;;;;;10.53;2.90;;;;;;;;;;5031647;28;20189;-84
2023/01/30 14:35:30;;;;;;;11.90;3.27;;;;;;;;;;5031542;28;20183;-85
2023/01/30 14:38:15;;;;;;;11.37;3.20;;;;;;;;;;5026306;28;20193;-83
2023/01/30 14:40:42;;;;;;;10.17;2.93;;;;;;;;;;5047402;28;20304;-85
2023/01/30 14:43:11;;;;;;;8.30;3.30;;;;;;;;;;5031843;28;20822;-82
2023/01/30 14:45:51;;;;;;;8.80;2.63;;;;;;;;;;5024991;28;20194;-83
2023/01/30 14:48:32;;;;;;;11.57;3.50;;;;;;;;;;5045814;28;20201;-83
2023/01/30 14:51:19;;;;;;;11.33;3.57;;;;;;;;;;5027491;28;20239;-83